Time;durP1;ratioP1;P1;durP2;ratioP2;P2;SDS_P1;SDS_P2;PMS_P1;PMS_P2;Temp;Humidity;BMP_temperature;BMP_pressure;BME280_temperature;BME280_humidity;BME280_pressure;Samples;Min_cycle;Max_cycle;Signal;HPM_P1;HPM_P2
2023/09/12 00:02:09;;;;;;;38.55;27.58;;;19.00;99.90;;;;;;5071445;28;20507;-81
2023/09/12 00:04:35;;;;;;;37.92;26.15;;;19.00;99.90;;;;;;5069055;28;20531;-81
2023/09/12 00:07:03;;;;;;;36.95;26.63;;;19.00;99.90;;;;;;5061407;28;20043;-81
2023/09/12 00:09:29;;;;;;;34.38;24.70;;;19.00;99.90;;;;;;5057284;28;20040;-81
2023/09/12 00:11:55;;;;;;;34.60;26.50;;;19.00;99.90;;;;;;5056536;28;20186;-81
2023/09/12 00:14:20;;;;;;;37.65;25.95;;;19.00;99.90;;;;;;5074543;28;20364;-80
2023/09/12 00:16:46;;;;;;;37.30;28.05;;;19.00;99.90;;;;;;5058059;28;20111;-80
2023/09/12 00:19:12;;;;;;;40.85;28.05;;;19.00;99.90;;;;;;5072130;28;20058;-80
2023/09/12 00:21:38;;;;;;;37.17;26.90;;;18.90;99.90;;;;;;5062059;28;20040;-85
2023/09/12 00:24:04;;;;;;;36.70;27.95;;;19.00;99.90;;;;;;5075916;28;20091;-84
2023/09/12 00:26:30;;;;;;;36.33;27.95;;;19.00;99.90;;;;;;5061147;28;20062;-80
2023/09/12 00:28:56;;;;;;;36.22;27.63;;;18.90;99.90;;;;;;5073222;28;20062;-80
2023/09/12 00:31:22;;;;;;;37.33;27.25;;;18.90;99.90;;;;;;5056423;28;20492;-80
2023/09/12 00:33:48;;;;;;;40.33;28.67;;;19.00;99.90;;;;;;5055837;28;20117;-81
2023/09/12 00:36:13;;;;;;;36.58;26.92;;;19.00;99.90;;;;;;5063367;28;20044;-81
2023/09/12 00:38:39;;;;;;;43.75;28.92;;;18.90;99.90;;;;;;5074804;28;20384;-81
2023/09/12 00:41:05;;;;;;;41.15;29.45;;;18.90;99.90;;;;;;5074725;28;20076;-80
2023/09/12 00:43:30;;;;;;;36.55;27.33;;;18.90;99.90;;;;;;5061836;28;20055;-81
2023/09/12 00:45:56;;;;;;;40.13;28.25;;;18.80;99.90;;;;;;5073957;28;20157;-81
2023/09/12 00:48:23;;;;;;;40.22;26.73;;;18.90;99.90;;;;;;5072091;28;20043;-81
2023/09/12 00:50:51;;;;;;;35.83;26.02;;;18.80;99.90;;;;;;5075781;28;20126;-81
2023/09/12 00:53:18;;;;;;;46.72;28.35;;;18.80;99.90;;;;;;5058653;28;20040;-81
2023/09/12 00:55:49;;;;;;;30.35;23.30;;;18.80;99.90;;;;;;5074700;28;20096;-81
2023/09/12 00:58:15;;;;;;;33.55;26.05;;;18.60;99.90;;;;;;5058146;28;20174;-81
2023/09/12 01:00:41;;;;;;;40.70;27.10;;;18.60;99.90;;;;;;5053973;28;20041;-81
2023/09/12 01:03:07;;;;;;;39.42;26.95;;;18.70;99.90;;;;;;5060912;28;20586;-81
2023/09/12 01:05:34;;;;;;;38.40;28.10;;;18.70;99.90;;;;;;5075314;28;20115;-81
2023/09/12 01:08:00;;;;;;;35.80;27.17;;;18.70;99.90;;;;;;5054958;28;20040;-81
2023/09/12 01:10:26;;;;;;;35.80;26.85;;;18.60;99.90;;;;;;5061523;28;20499;-80
2023/09/12 01:12:52;;;;;;;38.70;27.25;;;18.60;99.90;;;;;;5060014;28;20037;-81
2023/09/12 01:15:18;;;;;;;40.95;28.10;;;18.60;99.90;;;;;;5083144;28;20408;-81
2023/09/12 01:17:44;;;;;;;33.60;25.90;;;18.60;99.90;;;;;;5062217;28;20047;-81
2023/09/12 01:20:19;;;;;;;45.92;27.98;;;18.60;99.90;;;;;;5058847;28;20055;-81
2023/09/12 01:23:22;;;;;;;39.05;28.40;;;18.70;99.90;;;;;;5062785;28;20132;-81
2023/09/12 01:26:09;;;;;;;36.72;26.60;;;18.70;99.90;;;;;;5005387;28;20097;-81
2023/09/12 01:28:42;;;;;;;35.90;27.27;;;18.70;99.90;;;;;;5003606;28;20115;-81
2023/09/12 01:31:08;;;;;;;37.75;27.27;;;18.70;99.90;;;;;;5054187;28;20102;-81
2023/09/12 01:33:33;;;;;;;37.88;27.48;;;18.70;99.90;;;;;;5061909;28;20036;-81
2023/09/12 01:35:59;;;;;;;38.60;27.33;;;18.70;99.90;;;;;;5054139;28;20044;-81
2023/09/12 01:38:25;;;;;;;41.78;30.33;;;18.70;99.90;;;;;;5060439;28;20040;-81
2023/09/12 01:40:53;;;;;;;40.05;27.30;;;18.80;99.90;;;;;;5070900;28;20036;-80
2023/09/12 01:43:21;;;;;;;41.15;29.02;;;18.80;99.90;;;;;;5052870;28;20147;-80
2023/09/12 01:45:54;;;;;;;40.47;27.83;;;18.80;99.90;;;;;;5075783;28;20487;-81
2023/09/12 01:48:26;;;;;;;40.85;30.10;;;18.80;99.90;;;;;;5062270;28;20175;-81
2023/09/12 01:50:52;;;;;;;39.90;29.52;;;18.80;99.90;;;;;;5051639;28;20040;-81
2023/09/12 01:53:19;;;;;;;39.50;28.83;;;18.70;99.90;;;;;;5062462;28;20060;-81
2023/09/12 01:55:46;;;;;;;39.38;28.88;;;18.80;99.90;;;;;;5072728;28;20602;-81
2023/09/12 01:58:13;;;;;;;40.63;27.92;;;18.80;99.90;;;;;;5066309;28;20042;-81
2023/09/12 02:00:40;;;;;;;40.97;29.08;;;18.70;99.90;;;;;;5072687;28;20036;-81
2023/09/12 02:03:05;;;;;;;42.45;29.10;;;18.70;99.90;;;;;;5077611;28;20051;-81
2023/09/12 02:05:31;;;;;;;43.13;28.75;;;18.60;99.90;;;;;;5057121;28;20036;-81
2023/09/12 02:08:00;;;;;;;41.65;28.17;;;18.60;99.90;;;;;;5062680;28;20043;-81
2023/09/12 02:10:25;;;;;;;43.90;28.23;;;18.40;99.90;;;;;;5066464;28;20561;-81
2023/09/12 02:12:51;;;;;;;40.65;27.83;;;18.40;99.90;;;;;;5076125;28;20048;-80
2023/09/12 02:15:17;;;;;;;42.50;28.70;;;18.30;99.90;;;;;;5072718;28;20048;-81
2023/09/12 02:17:42;;;;;;;39.10;28.05;;;18.30;99.90;;;;;;5062293;28;20031;-81
2023/09/12 02:20:09;;;;;;;38.80;27.50;;;18.30;99.90;;;;;;5057896;28;20299;-81
2023/09/12 02:22:35;;;;;;;38.40;27.15;;;18.30;99.90;;;;;;5064207;28;20041;-81
2023/09/12 02:25:02;;;;;;;42.35;29.02;;;18.30;99.90;;;;;;5064395;28;20051;-81
2023/09/12 02:27:27;;;;;;;42.30;29.15;;;18.20;99.90;;;;;;5083838;28;20062;-81
2023/09/12 02:29:53;;;;;;;42.05;28.77;;;18.20;99.90;;;;;;5059917;28;20489;-81
2023/09/12 02:32:19;;;;;;;40.60;28.25;;;18.20;99.90;;;;;;5071113;28;20029;-81
2023/09/12 02:34:44;;;;;;;44.45;28.90;;;18.30;99.90;;;;;;5076383;28;20587;-80
2023/09/12 02:37:10;;;;;;;37.63;26.83;;;18.30;99.90;;;;;;5078344;28;20078;-81
2023/09/12 02:39:36;;;;;;;37.58;26.38;;;18.30;99.90;;;;;;5075044;28;20040;-81
2023/09/12 02:42:02;;;;;;;29.15;21.40;;;18.30;99.90;;;;;;5066004;28;20045;-81
2023/09/12 02:44:28;;;;;;;34.20;23.88;;;18.40;99.90;;;;;;5080505;28;20531;-81
2023/09/12 02:46:53;;;;;;;40.53;27.15;;;18.40;99.90;;;;;;5101428;28;20048;-81
2023/09/12 02:49:19;;;;;;;36.13;26.15;;;18.40;99.90;;;;;;5077189;28;20032;-81
2023/09/12 02:51:45;;;;;;;40.33;27.83;;;18.50;99.90;;;;;;5077424;28;20107;-81
2023/09/12 02:54:11;;;;;;;44.42;28.65;;;18.40;99.90;;;;;;5085233;28;20051;-81
2023/09/12 02:56:36;;;;;;;43.67;29.45;;;18.50;99.90;;;;;;5086312;28;20039;-81
2023/09/12 02:59:02;;;;;;;45.08;29.15;;;18.50;99.90;;;;;;5080476;28;20047;-81
2023/09/12 03:01:28;;;;;;;46.38;30.70;;;18.50;99.90;;;;;;5088154;28;20491;-81
2023/09/12 03:03:54;;;;;;;44.97;30.88;;;18.50;99.90;;;;;;5083136;28;20039;-81
2023/09/12 03:06:20;;;;;;;43.58;29.90;;;18.50;99.90;;;;;;5103445;27;20048;-81
2023/09/12 03:08:47;;;;;;;48.42;30.58;;;18.40;99.90;;;;;;5097385;28;20518;-80
2023/09/12 03:11:12;;;;;;;43.88;29.42;;;18.40;99.90;;;;;;5092574;28;20069;-81
2023/09/12 03:13:40;;;;;;;44.35;29.23;;;18.30;99.90;;;;;;5085939;28;20070;-81
2023/09/12 03:16:10;;;;;;;39.22;27.33;;;18.30;99.90;;;;;;5092186;28;20047;-81
2023/09/12 03:18:36;;;;;;;39.90;28.55;;;18.20;99.90;;;;;;5080349;28;20108;-80
2023/09/12 03:21:01;;;;;;;43.88;29.15;;;18.20;99.90;;;;;;5082190;28;20462;-80
2023/09/12 03:23:27;;;;;;;40.58;27.45;;;18.20;99.90;;;;;;5097093;28;20043;-80
2023/09/12 03:25:52;;;;;;;53.30;27.67;;;18.20;99.90;;;;;;5081237;28;20532;-80
2023/09/12 03:28:18;;;;;;;60.47;27.25;;;18.20;99.90;;;;;;5091561;28;20039;-80
2023/09/12 03:30:44;;;;;;;36.97;25.08;;;18.20;99.90;;;;;;5090457;28;20028;-80
2023/09/12 03:33:09;;;;;;;34.40;24.73;;;18.10;99.90;;;;;;5078600;28;20476;-80
2023/09/12 03:35:36;;;;;;;34.00;23.42;;;18.20;99.90;;;;;;5080959;28;20081;-80
2023/09/12 03:38:02;;;;;;;37.53;26.80;;;18.20;99.90;;;;;;5090953;28;20058;-81
2023/09/12 03:40:31;;;;;;;38.95;25.67;;;18.20;99.90;;;;;;5079348;28;20035;-80
2023/09/12 03:42:57;;;;;;;37.63;25.40;;;18.20;99.90;;;;;;5077764;28;20040;-80
2023/09/12 03:45:23;;;;;;;41.72;28.02;;;18.20;99.90;;;;;;5062328;28;20393;-80
2023/09/12 03:47:49;;;;;;;39.83;26.15;;;18.20;99.90;;;;;;5062234;28;20086;-80
2023/09/12 03:50:14;;;;;;;37.80;26.98;;;18.20;99.90;;;;;;5075451;28;20392;-80
2023/09/12 03:52:40;;;;;;;130.98;31.20;;;18.20;99.90;;;;;;5051356;28;20052;-80
2023/09/12 03:55:06;;;;;;;30.55;23.30;;;18.20;99.90;;;;;;5062113;28;20495;-80
2023/09/12 03:57:32;;;;;;;34.17;25.40;;;18.10;99.90;;;;;;5059525;28;20107;-80
2023/09/12 03:59:58;;;;;;;39.00;27.05;;;18.10;99.90;;;;;;5072501;28;20187;-80
2023/09/12 04:02:24;;;;;;;35.67;25.40;;;18.20;99.90;;;;;;5058081;28;20036;-80
2023/09/12 04:04:49;;;;;;;38.72;26.63;;;18.10;99.90;;;;;;5071840;28;20032;-80
2023/09/12 04:07:15;;;;;;;41.47;27.77;;;18.00;99.90;;;;;;5058601;28;20313;-80
2023/09/12 04:09:41;;;;;;;45.92;30.25;;;18.10;99.90;;;;;;5057437;28;20502;-80
2023/09/12 04:12:08;;;;;;;42.53;28.20;;;18.00;99.90;;;;;;5070443;28;20393;-80
2023/09/12 04:14:34;;;;;;;37.40;25.40;;;18.00;99.90;;;;;;5063648;28;20062;-80
2023/09/12 04:17:00;;;;;;;41.97;27.90;;;17.90;99.90;;;;;;5075597;28;20032;-80
2023/09/12 04:19:26;;;;;;;41.50;27.52;;;17.90;99.90;;;;;;5061034;28;20104;-80
2023/09/12 04:21:51;;;;;;;42.53;28.27;;;17.90;99.90;;;;;;5071174;28;20040;-80
2023/09/12 04:24:17;;;;;;;258.85;37.17;;;17.90;99.90;;;;;;5073004;28;20044;-80
2023/09/12 04:26:43;;;;;;;661.17;55.53;;;17.70;99.90;;;;;;5069555;28;20036;-80
2023/09/12 04:29:10;;;;;;;41.85;26.02;;;17.70;99.90;;;;;;5064610;28;20063;-80
2023/09/12 04:31:35;;;;;;;49.83;25.52;;;17.60;99.90;;;;;;5067872;28;20036;-80
2023/09/12 04:34:01;;;;;;;36.65;24.85;;;17.60;99.90;;;;;;5075239;28;20048;-80
2023/09/12 04:36:27;;;;;;;34.58;23.45;;;17.60;99.90;;;;;;5058641;28;20037;-80
2023/09/12 04:38:52;;;;;;;39.70;25.27;;;17.50;99.90;;;;;;5061357;28;20112;-80
2023/09/12 04:41:18;;;;;;;32.85;23.77;;;17.50;99.90;;;;;;5056227;28;20040;-80
2023/09/12 04:43:44;;;;;;;38.47;24.52;;;17.40;99.90;;;;;;5075610;28;20427;-80
2023/09/12 04:46:11;;;;;;;45.10;23.35;;;17.50;99.90;;;;;;5071347;28;20042;-80
2023/09/12 04:48:37;;;;;;;216.32;24.35;;;17.30;99.90;;;;;;5072187;28;20351;-80
2023/09/12 04:51:02;;;;;;;86.13;23.90;;;17.30;99.90;;;;;;5072191;28;20047;-80
2023/09/12 04:53:34;;;;;;;65.22;23.08;;;17.30;99.90;;;;;;5070754;28;20294;-80
2023/09/12 04:56:00;;;;;;;34.17;22.50;;;17.30;99.90;;;;;;5070499;28;20040;-80
2023/09/12 04:58:26;;;;;;;37.83;23.15;;;17.30;99.90;;;;;;5054024;28;20345;-80
2023/09/12 05:00:55;;;;;;;36.00;23.33;;;17.30;99.90;;;;;;5068694;28;20044;-80
2023/09/12 05:03:21;;;;;;;41.75;24.70;;;17.40;99.90;;;;;;5055543;28;20047;-80
2023/09/12 05:05:48;;;;;;;113.65;27.15;;;17.40;99.90;;;;;;5054811;28;20040;-80
2023/09/12 05:08:14;;;;;;;44.65;26.38;;;17.40;99.90;;;;;;5076425;28;20557;-80
2023/09/12 05:10:39;;;;;;;59.58;28.60;;;17.50;99.90;;;;;;5074802;28;20414;-80
2023/09/12 05:13:05;;;;;;;75.15;31.67;;;17.60;99.90;;;;;;5055212;28;20047;-80
2023/09/12 05:15:31;;;;;;;72.68;31.45;;;17.60;99.90;;;;;;5061274;28;20040;-80
2023/09/12 05:17:56;;;;;;;86.05;32.65;;;17.70;99.90;;;;;;5062187;28;20185;-80
2023/09/12 05:20:22;;;;;;;120.15;35.03;;;17.70;99.90;;;;;;5068631;28;20055;-80
2023/09/12 05:22:48;;;;;;;68.22;33.25;;;17.80;99.90;;;;;;5076374;28;20070;-80
2023/09/12 05:25:13;;;;;;;105.55;35.42;;;17.80;99.90;;;;;;5072204;28;20089;-80
2023/09/12 05:27:42;;;;;;;125.35;35.30;;;17.80;99.90;;;;;;5053556;28;20039;-80
2023/09/12 05:30:11;;;;;;;104.40;35.53;;;17.80;99.90;;;;;;5070035;28;20045;-80
2023/09/12 05:32:36;;;;;;;93.43;32.97;;;17.80;99.90;;;;;;5086770;28;20466;-80
2023/09/12 05:35:02;;;;;;;75.05;31.05;;;17.80;99.90;;;;;;5070608;28;20052;-80
2023/09/12 05:37:28;;;;;;;65.55;30.88;;;17.80;99.90;;;;;;5072441;28;20036;-80
2023/09/12 05:39:54;;;;;;;58.05;32.42;;;17.80;99.90;;;;;;5062376;28;20163;-80
2023/09/12 05:42:21;;;;;;;66.15;31.05;;;17.80;99.90;;;;;;5059638;28;20044;-80
2023/09/12 05:44:53;;;;;;;64.05;31.83;;;17.90;99.90;;;;;;5080274;28;20134;-80
2023/09/12 05:47:19;;;;;;;63.63;33.20;;;17.90;99.90;;;;;;5090941;28;20040;-80
2023/09/12 05:49:45;;;;;;;63.20;31.45;;;17.90;99.90;;;;;;5092073;28;20120;-80
2023/09/12 05:52:11;;;;;;;59.80;32.10;;;18.00;99.90;;;;;;5091410;28;20056;-81
2023/09/12 05:54:37;;;;;;;61.47;32.10;;;18.00;99.90;;;;;;5095100;28;20048;-81
2023/09/12 05:57:03;;;;;;;60.67;31.25;;;18.00;99.90;;;;;;5073323;28;20063;-81
2023/09/12 05:59:29;;;;;;;70.32;33.17;;;18.10;99.90;;;;;;5080895;28;20082;-80
2023/09/12 06:01:55;;;;;;;72.30;33.22;;;18.20;99.90;;;;;;5075982;28;20047;-80
2023/09/12 06:04:21;;;;;;;56.75;31.20;;;18.20;99.90;;;;;;5083061;28;20039;-80
2023/09/12 06:06:47;;;;;;;61.95;31.85;;;18.30;99.90;;;;;;5086374;28;20040;-80
2023/09/12 06:09:12;;;;;;;58.55;31.15;;;18.30;99.90;;;;;;5091621;28;20456;-79
2023/09/12 06:11:38;;;;;;;59.67;31.20;;;18.40;99.90;;;;;;5074354;28;20093;-80
2023/09/12 06:14:04;;;;;;;58.90;31.00;;;18.50;99.90;;;;;;5087366;28;20048;-81
2023/09/12 06:16:29;;;;;;;63.33;31.80;;;18.50;99.90;;;;;;5081434;28;20644;-81
2023/09/12 06:18:55;;;;;;;54.75;29.85;;;18.60;99.90;;;;;;5081384;28;20496;-81
2023/09/12 06:21:21;;;;;;;60.58;30.52;;;18.60;99.90;;;;;;5075771;28;20047;-80
2023/09/12 06:23:48;;;;;;;62.45;31.88;;;18.60;99.90;;;;;;5091348;28;20036;-81
2023/09/12 06:26:14;;;;;;;54.75;30.98;;;18.70;99.90;;;;;;5088902;28;20039;-80
2023/09/12 06:28:40;;;;;;;56.20;30.92;;;18.70;99.90;;;;;;5081810;28;20031;-80
2023/09/12 06:31:09;;;;;;;54.38;30.45;;;18.70;99.90;;;;;;5094482;28;20122;-80
2023/09/12 06:33:37;;;;;;;55.40;32.10;;;18.70;99.90;;;;;;5075366;28;20036;-80
2023/09/12 06:36:03;;;;;;;53.58;31.00;;;18.70;99.90;;;;;;5079952;28;20499;-80
2023/09/12 06:38:29;;;;;;;53.95;30.75;;;18.70;99.90;;;;;;5079157;28;20097;-81
2023/09/12 06:40:56;;;;;;;62.08;32.47;;;18.70;99.90;;;;;;5085306;28;20904;-80
2023/09/12 06:43:21;;;;;;;57.60;31.95;;;18.80;99.90;;;;;;5083792;28;20101;-80
2023/09/12 06:45:48;;;;;;;58.88;31.38;;;18.80;99.90;;;;;;5078079;28;20052;-80
2023/09/12 06:48:13;;;;;;;55.90;32.30;;;19.00;99.90;;;;;;5066348;28;20042;-80
2023/09/12 06:50:39;;;;;;;56.67;31.80;;;19.00;99.90;;;;;;5077398;28;20040;-81
2023/09/12 06:53:06;;;;;;;58.97;29.88;;;19.10;99.90;;;;;;5065140;28;20041;-80
2023/09/12 06:55:32;;;;;;;53.65;30.67;;;19.20;99.90;;;;;;5063272;28;20044;-81
2023/09/12 06:57:58;;;;;;;56.38;31.25;;;19.30;99.90;;;;;;5077624;28;20462;-81
2023/09/12 07:00:24;;;;;;;57.65;33.13;;;19.30;99.90;;;;;;5061313;28;20230;-81
2023/09/12 07:02:50;;;;;;;59.80;32.65;;;19.40;99.90;;;;;;5063656;28;20041;-81
2023/09/12 07:05:15;;;;;;;51.83;31.83;;;19.50;99.90;;;;;;5054457;28;20044;-81
2023/09/12 07:07:41;;;;;;;52.38;30.08;;;19.40;99.90;;;;;;5065345;28;20540;-81
2023/09/12 07:10:07;;;;;;;57.50;31.80;;;19.50;99.90;;;;;;5074230;28;20054;-81
2023/09/12 07:12:35;;;;;;;55.88;31.67;;;19.50;99.90;;;;;;5059533;28;20036;-81
2023/09/12 07:15:01;;;;;;;56.05;32.25;;;19.50;99.90;;;;;;5064463;28;20040;-81
2023/09/12 07:17:29;;;;;;;54.08;32.05;;;19.70;99.90;;;;;;5063387;28;20042;-81
2023/09/12 07:19:55;;;;;;;58.90;32.38;;;19.80;99.90;;;;;;5059715;28;20413;-81
2023/09/12 07:22:20;;;;;;;55.00;31.95;;;19.80;99.90;;;;;;5062090;28;20039;-81
2023/09/12 07:24:46;;;;;;;58.63;33.35;;;20.10;99.90;;;;;;5060247;28;20405;-81
2023/09/12 07:27:11;;;;;;;57.38;33.20;;;20.10;99.90;;;;;;5060054;28;20047;-81
2023/09/12 07:29:38;;;;;;;54.67;33.05;;;20.20;99.90;;;;;;5064661;28;20032;-82
2023/09/12 07:32:06;;;;;;;48.70;29.23;;;20.30;99.90;;;;;;5062220;28;20315;-82
2023/09/12 07:34:33;;;;;;;53.03;31.52;;;20.30;99.90;;;;;;5075849;28;20104;-82
2023/09/12 07:36:58;;;;;;;51.45;30.50;;;20.20;99.90;;;;;;5073977;28;20122;-81
2023/09/12 07:39:24;;;;;;;51.47;32.28;;;20.30;99.90;;;;;;5061767;28;20111;-81
2023/09/12 07:41:52;;;;;;;50.38;29.73;;;20.40;99.90;;;;;;5074340;28;20464;-82
2023/09/12 07:44:17;;;;;;;49.03;29.95;;;20.20;99.90;;;;;;5060886;28;20071;-82
2023/09/12 07:46:43;;;;;;;48.20;28.98;;;20.30;99.90;;;;;;5063868;28;20492;-81
2023/09/12 07:49:12;;;;;;;47.88;29.05;;;20.50;99.90;;;;;;5060574;28;20096;-81
2023/09/12 07:51:37;;;;;;;48.92;31.38;;;20.60;99.90;;;;;;5077594;28;20090;-81
2023/09/12 07:54:03;;;;;;;46.45;29.27;;;21.00;99.90;;;;;;5063860;28;20067;-81
2023/09/12 07:56:29;;;;;;;44.67;28.35;;;20.80;99.90;;;;;;5060888;28;20071;-82
2023/09/12 07:58:56;;;;;;;43.17;29.05;;;20.60;99.90;;;;;;5062075;28;20031;-81
2023/09/12 08:01:22;;;;;;;43.55;27.65;;;20.80;99.90;;;;;;5061556;28;20164;-81
2023/09/12 08:03:47;;;;;;;37.53;26.95;;;20.80;99.90;;;;;;5076517;28;20059;-81
2023/09/12 08:06:13;;;;;;;42.88;27.75;;;20.70;99.90;;;;;;5059320;28;20468;-82
2023/09/12 08:08:39;;;;;;;37.08;25.98;;;20.70;99.90;;;;;;5056637;28;20093;-81
2023/09/12 08:11:04;;;;;;;38.88;26.92;;;20.50;99.90;;;;;;5063584;28;20127;-81
2023/09/12 08:13:30;;;;;;;38.20;26.00;;;20.50;99.90;;;;;;5065408;28;20040;-82
2023/09/12 08:15:56;;;;;;;35.00;25.23;;;20.50;99.90;;;;;;5059835;28;20075;-82
2023/09/12 08:18:27;;;;;;;40.45;26.02;;;20.50;99.90;;;;;;5057663;28;20080;-81
2023/09/12 08:20:53;;;;;;;39.33;26.00;;;20.50;99.90;;;;;;5072677;28;20048;-82
2023/09/12 08:23:19;;;;;;;40.83;25.60;;;20.40;99.90;;;;;;5071691;28;20033;-82
2023/09/12 08:25:44;;;;;;;39.92;25.67;;;20.30;99.90;;;;;;5059305;28;20353;-82
2023/09/12 08:28:10;;;;;;;41.10;26.95;;;20.30;99.90;;;;;;5068473;28;20121;-81
2023/09/12 08:30:35;;;;;;;39.40;25.50;;;20.20;99.90;;;;;;5069960;28;20040;-82
2023/09/12 08:33:03;;;;;;;40.55;26.08;;;20.20;99.90;;;;;;5060391;28;20526;-82
2023/09/12 08:35:29;;;;;;;41.45;27.38;;;20.20;99.90;;;;;;5060688;28;20062;-82
2023/09/12 08:37:55;;;;;;;41.70;27.33;;;20.20;99.90;;;;;;5071049;28;20362;-82
2023/09/12 08:40:20;;;;;;;43.15;27.73;;;20.00;99.90;;;;;;5059145;28;20252;-81
2023/09/12 08:42:48;;;;;;;43.15;27.58;;;20.20;99.90;;;;;;5069340;28;20084;-82
2023/09/12 08:45:15;;;;;;;41.55;27.63;;;20.20;99.90;;;;;;5070880;28;20123;-82
2023/09/12 08:47:43;;;;;;;43.83;28.33;;;20.10;99.90;;;;;;5077502;28;20035;-82
2023/09/12 08:50:13;;;;;;;45.70;28.88;;;20.20;99.90;;;;;;5056192;28;20480;-82
2023/09/12 08:52:43;;;;;;;44.55;29.08;;;20.30;99.90;;;;;;5059124;28;20080;-82
2023/09/12 08:55:10;;;;;;;44.45;27.95;;;20.40;99.90;;;;;;5071218;28;20345;-82
2023/09/12 08:57:41;;;;;;;43.47;28.33;;;20.50;99.90;;;;;;5075323;28;20295;-82
2023/09/12 09:00:09;;;;;;;40.13;26.77;;;20.70;99.90;;;;;;5075950;28;20066;-82
2023/09/12 09:02:36;;;;;;;42.45;29.35;;;20.80;99.90;;;;;;5073870;28;20036;-82
2023/09/12 09:05:05;;;;;;;43.72;28.05;;;21.00;99.90;;;;;;5073870;28;20044;-81
2023/09/12 09:07:37;;;;;;;45.85;28.33;;;21.00;99.90;;;;;;5062283;28;20040;-82
2023/09/12 09:10:07;;;;;;;41.05;25.67;;;21.30;99.90;;;;;;5068902;28;20127;-82
2023/09/12 09:12:34;;;;;;;50.63;27.85;;;21.80;99.90;;;;;;5059227;28;20266;-82
2023/09/12 09:15:20;;;;;;;40.83;27.85;;;22.00;99.90;;;;;;5075202;28;20441;-82
2023/09/12 09:17:46;;;;;;;40.10;28.77;;;22.30;99.90;;;;;;5058309;28;20044;-82
2023/09/12 09:20:22;;;;;;;39.13;27.77;;;22.60;99.90;;;;;;5068977;28;20037;-82
2023/09/12 09:22:56;;;;;;;42.22;28.38;;;22.90;99.90;;;;;;5072423;28;20044;-82
2023/09/12 09:25:22;;;;;;;41.25;27.95;;;22.80;99.90;;;;;;5067595;28;20040;-82
2023/09/12 09:27:48;;;;;;;35.42;21.50;;;22.60;99.90;;;;;;5061277;28;20101;-81
2023/09/12 09:30:13;;;;;;;41.17;25.38;;;22.70;99.90;;;;;;5069499;28;20079;-82
2023/09/12 09:32:39;;;;;;;34.00;24.63;;;22.60;99.90;;;;;;5074244;28;20043;-81
2023/09/12 09:35:06;;;;;;;34.40;24.10;;;22.50;99.90;;;;;;5051967;28;20091;-82
2023/09/12 09:37:32;;;;;;;42.67;24.80;;;22.00;99.90;;;;;;5062707;28;20054;-82
2023/09/12 09:39:58;;;;;;;37.47;23.52;;;22.20;99.90;;;;;;5073406;28;20024;-82
2023/09/12 09:42:23;;;;;;;37.65;25.25;;;22.30;99.90;;;;;;5059186;28;20124;-82
2023/09/12 09:44:50;;;;;;;36.47;22.38;;;22.40;99.90;;;;;;5077491;28;20122;-82
2023/09/12 09:47:18;;;;;;;38.38;25.67;;;22.00;99.90;;;;;;5073258;28;20035;-82
2023/09/12 09:49:45;;;;;;;42.17;26.48;;;22.10;99.90;;;;;;5078268;28;20071;-82
2023/09/12 09:52:14;;;;;;;37.17;25.63;;;21.90;99.90;;;;;;5083550;28;20035;-82
2023/09/12 09:54:45;;;;;;;34.58;23.35;;;22.00;99.90;;;;;;5079439;28;20043;-84
2023/09/12 09:57:11;;;;;;;38.80;24.30;;;22.30;99.90;;;;;;5079150;28;20476;-83
2023/09/12 09:59:36;;;;;;;41.38;25.50;;;22.20;99.90;;;;;;5092849;28;20044;-83
2023/09/12 10:02:04;;;;;;;39.63;23.95;;;21.90;99.90;;;;;;5080423;28;20482;-83
2023/09/12 10:04:32;;;;;;;42.28;25.80;;;21.90;99.90;;;;;;5072428;28;20028;-83
2023/09/12 10:06:58;;;;;;;43.40;24.92;;;21.90;99.90;;;;;;5076410;28;20044;-82
2023/09/12 10:09:26;;;;;;;41.13;25.17;;;21.80;99.90;;;;;;5077124;28;20032;-82
2023/09/12 10:11:54;;;;;;;40.85;26.05;;;21.80;99.90;;;;;;5077000;28;20043;-82
2023/09/12 10:14:22;;;;;;;43.55;26.48;;;21.70;99.90;;;;;;5090937;28;20051;-82
2023/09/12 10:16:49;;;;;;;41.22;25.92;;;21.90;99.90;;;;;;5078294;28;20110;-82
2023/09/12 10:19:36;;;;;;;37.35;26.05;;;22.20;99.90;;;;;;5079058;28;20031;-82
2023/09/12 10:22:06;;;;;;;38.25;25.38;;;22.40;99.90;;;;;;5074560;28;20122;-82
2023/09/12 10:24:34;;;;;;;41.42;25.13;;;22.40;99.90;;;;;;5093817;28;20373;-82
2023/09/12 10:27:01;;;;;;;38.70;25.08;;;22.30;99.90;;;;;;5093781;27;20176;-82
2023/09/12 10:29:28;;;;;;;37.30;24.13;;;22.50;99.90;;;;;;5094331;28;20036;-82
2023/09/12 10:31:53;;;;;;;35.58;22.25;;;22.50;99.90;;;;;;5097553;28;20275;-82
2023/09/12 10:34:20;;;;;;;36.67;23.23;;;22.70;99.90;;;;;;5087217;28;20051;-81
2023/09/12 10:36:47;;;;;;;38.15;22.20;;;22.70;99.90;;;;;;5084266;28;20055;-82
2023/09/12 10:39:16;;;;;;;35.60;22.90;;;22.70;99.90;;;;;;5081369;28;20269;-83
2023/09/12 10:41:42;;;;;;;34.13;21.98;;;22.80;99.90;;;;;;5083214;28;20596;-83
2023/09/12 10:44:17;;;;;;;31.38;21.52;;;22.90;99.90;;;;;;5080280;28;20068;-83
2023/09/12 10:46:45;;;;;;;29.33;20.60;;;23.10;99.90;;;;;;5090219;28;20489;-83
2023/09/12 10:49:13;;;;;;;30.42;21.08;;;23.40;99.90;;;;;;5084827;28;20040;-83
2023/09/12 10:51:42;;;;;;;31.05;22.10;;;23.60;99.90;;;;;;5073567;28;20046;-83
2023/09/12 10:54:12;;;;;;;28.50;19.67;;;23.70;99.90;;;;;;5080224;28;20047;-83
2023/09/12 10:56:39;;;;;;;29.38;19.73;;;23.90;99.90;;;;;;5078181;28;20055;-84
2023/09/12 10:59:09;;;;;;;29.80;20.10;;;24.10;99.90;;;;;;5095609;28;20044;-84
2023/09/12 11:01:36;;;;;;;29.38;20.25;;;24.10;99.90;;;;;;5094199;28;20463;-83
2023/09/12 11:04:27;;;;;;;28.27;19.58;;;24.30;99.90;;;;;;5077276;28;20363;-84
2023/09/12 11:06:53;;;;;;;28.40;19.30;;;24.70;99.90;;;;;;5072988;28;21314;-83
2023/09/12 11:09:24;;;;;;;25.20;17.92;;;24.80;99.90;;;;;;5078973;28;20036;-83
2023/09/12 11:12:02;;;;;;;26.27;19.08;;;24.60;99.90;;;;;;5078306;28;20036;-83
2023/09/12 11:14:28;;;;;;;24.35;17.27;;;24.60;99.90;;;;;;5081577;28;20403;-83
2023/09/12 11:17:24;;;;;;;27.35;19.55;;;24.80;99.90;;;;;;5098446;28;20453;-84
2023/09/12 11:19:54;;;;;;;28.98;19.10;;;24.70;99.90;;;;;;5071788;28;20046;-84
2023/09/12 11:22:30;;;;;;;27.23;20.42;;;24.80;99.90;;;;;;5078291;28;20114;-83
2023/09/12 11:24:57;;;;;;;25.55;19.67;;;24.20;99.90;;;;;;5080397;28;20118;-84
2023/09/12 11:27:32;;;;;;;27.80;19.63;;;24.50;99.90;;;;;;5082183;28;20321;-84
2023/09/12 11:30:07;;;;;;;27.55;19.83;;;24.80;99.90;;;;;;5080118;28;20488;-83
2023/09/12 11:32:36;;;;;;;27.65;18.83;;;25.00;99.90;;;;;;5092635;28;20524;-83
2023/09/12 11:35:09;;;;;;;27.60;20.55;;;25.40;99.90;;;;;;5096077;28;20044;-84
2023/09/12 11:37:38;;;;;;;30.45;20.73;;;25.60;99.90;;;;;;5083614;28;20042;-86
2023/09/12 11:40:12;;;;;;;27.27;20.10;;;25.30;99.90;;;;;;5083539;28;20066;-85
2023/09/12 11:42:41;;;;;;;;;;;25.10;99.90;;;;;;5080295;28;20197;-86
2023/09/12 11:45:11;;;;;;;24.92;17.73;;;25.40;99.90;;;;;;5063631;28;20018;-86
2023/09/12 11:47:43;;;;;;;22.80;17.23;;;26.10;99.90;;;;;;5057548;28;20055;-85
2023/09/12 11:50:29;;;;;;;23.40;16.33;;;25.90;99.90;;;;;;5052267;28;20152;-84
2023/09/12 11:53:11;;;;;;;24.38;15.75;;;25.90;99.90;;;;;;5071792;28;20086;-84
2023/09/12 11:55:46;;;;;;;24.98;16.38;;;26.20;99.90;;;;;;5055050;28;20039;-84
2023/09/12 11:58:14;;;;;;;20.50;14.98;;;26.30;99.90;;;;;;5065786;28;20447;-84
2023/09/12 12:00:54;;;;;;;21.20;15.30;;;26.10;99.90;;;;;;5058029;28;20036;-84
2023/09/12 12:03:25;;;;;;;20.38;15.40;;;26.30;99.90;;;;;;5054829;28;20068;-84
2023/09/12 12:05:51;;;;;;;19.95;12.20;;;26.20;99.90;;;;;;5060682;28;20036;-83
2023/09/12 12:08:20;;;;;;;21.00;13.27;;;26.10;99.90;;;;;;5070354;28;20062;-84
2023/09/12 12:10:50;;;;;;;17.60;12.90;;;26.30;99.90;;;;;;5057895;28;20079;-85
2023/09/12 12:13:18;;;;;;;17.38;11.93;;;25.50;99.90;;;;;;5080949;28;20583;-86
2023/09/12 12:15:43;;;;;;;18.75;12.75;;;25.90;99.90;;;;;;5057238;28;20499;-85
2023/09/12 12:18:10;;;;;;;17.23;12.52;;;25.60;99.90;;;;;;5075278;28;20032;-84
2023/09/12 12:20:35;;;;;;;17.63;13.32;;;25.50;99.90;;;;;;5058374;28;20051;-84
2023/09/12 12:23:01;;;;;;;15.70;11.73;;;25.70;99.90;;;;;;5072681;28;20136;-87
2023/09/12 12:25:31;;;;;;;19.30;12.63;;;25.90;99.90;;;;;;5071335;28;20043;-87
2023/09/12 12:27:56;;;;;;;18.02;11.95;;;26.10;99.90;;;;;;5071159;28;20066;-86
2023/09/12 12:30:22;;;;;;;15.65;10.20;;;25.90;99.90;;;;;;5062113;28;20095;-87